createdAt,value
2022-11-29T00:01:16.526Z,97983.69
2022-11-29T00:03:44.694Z,97983.97
2022-11-29T00:06:14.437Z,97989.38
2022-11-29T00:08:42.453Z,97981.72
2022-11-29T00:11:14.012Z,97977.28
2022-11-29T00:13:41.981Z,97971.28
2022-11-29T00:16:12.138Z,97971.28
2022-11-29T00:18:39.823Z,97971.56
2022-11-29T00:21:08.600Z,97974.72
2022-11-29T00:23:36.824Z,97975.47
2022-11-29T00:26:05.505Z,97972.78
2022-11-29T00:28:34.958Z,97967.75
2022-11-29T00:31:02.665Z,97970.75
2022-11-29T00:33:30.306Z,97964.78
2022-11-29T00:36:02.309Z,97963.56
2022-11-29T00:38:29.987Z,97966.78
2022-11-29T00:40:57.612Z,97962.59
2022-11-29T00:43:25.255Z,97961.66
2022-11-29T00:45:54.312Z,97960.38
2022-11-29T00:48:22.083Z,97966.41
2022-11-29T00:50:49.765Z,97966.41
2022-11-29T00:53:17.529Z,97963.81
2022-11-29T00:55:45.280Z,97960.00
2022-11-29T00:58:12.946Z,97966.22
2022-11-29T01:00:40.635Z,97961.38
2022-11-29T01:03:09.675Z,97965.41
2022-11-29T01:05:37.364Z,97962.59
2022-11-29T01:08:05.220Z,97968.00
2022-11-29T01:10:33.474Z,97970.47
2022-11-29T01:13:01.187Z,97962.84
2022-11-29T01:15:29.473Z,97959.41
2022-11-29T01:17:57.111Z,97957.19
2022-11-29T01:20:26.294Z,97961.78
2022-11-29T01:22:54.120Z,97966.66
2022-11-29T01:25:21.758Z,97950.00
2022-11-29T01:27:49.369Z,97964.19
2022-11-29T01:30:17.251Z,97958.78
2022-11-29T01:32:44.915Z,97956.19
2022-11-29T01:35:12.530Z,97966.41
2022-11-29T01:37:41.620Z,97961.47
2022-11-29T01:40:09.936Z,97963.56
2022-11-29T01:42:37.636Z,97960.38
2022-11-29T01:45:16.136Z,97962.47
2022-11-29T01:47:47.591Z,97965.50
2022-11-29T01:50:15.520Z,97964.50
2022-11-29T01:52:45.347Z,97962.97
2022-11-29T01:55:13.770Z,97960.38
2022-11-29T01:57:42.567Z,97951.06
2022-11-29T02:00:12.891Z,97962.59
2022-11-29T02:02:45.240Z,97960.91
2022-11-29T02:05:15.808Z,97955.97
2022-11-29T02:07:47.352Z,97948.69
2022-11-29T02:10:16.408Z,97954.19
2022-11-29T02:12:54.413Z,97958.78
2022-11-29T02:15:43.341Z,97952.75
2022-11-29T02:18:14.697Z,97955.34
2022-11-29T02:21:17.446Z,97959.16
2022-11-29T02:24:16.071Z,97953.50
2022-11-29T02:27:03.570Z,97949.84
2022-11-29T02:29:48.402Z,97949.38
2022-11-29T02:32:35.244Z,97947.38
2022-11-29T02:35:17.639Z,97942.94
2022-11-29T02:38:04.647Z,97949.44
2022-11-29T02:40:54.725Z,97951.78
2022-11-29T02:44:07.418Z,97955.34
2022-11-29T02:46:48.069Z,97959.00
2022-11-29T02:49:28.550Z,97961.09
2022-11-29T02:52:01.786Z,97961.09
2022-11-29T02:54:37.673Z,97953.75
2022-11-29T02:57:15.524Z,97955.06
2022-11-29T02:59:51.756Z,97964.28
2022-11-29T03:02:28.320Z,97960.47
2022-11-29T03:05:04.423Z,97964.56
2022-11-29T03:07:40.170Z,97961.97
2022-11-29T03:10:18.920Z,97964.56
2022-11-29T03:12:50.005Z,97969.31
2022-11-29T03:15:28.233Z,97968.88
2022-11-29T03:18:21.146Z,97966.28
2022-11-29T03:21:05.395Z,97977.91
2022-11-29T03:23:38.876Z,97976.22
2022-11-29T03:26:11.536Z,97977.47
2022-11-29T03:28:44.484Z,97979.72
2022-11-29T03:31:17.193Z,97986.41
2022-11-29T03:33:52.431Z,97979.03
2022-11-29T03:36:34.656Z,97984.38
2022-11-29T03:39:06.319Z,97986.16
2022-11-29T03:41:40.234Z,97990.94
2022-11-29T03:44:14.013Z,97985.09
2022-11-29T03:46:49.199Z,97981.28
2022-11-29T03:49:21.813Z,97993.16
2022-11-29T03:52:01.075Z,97990.78
2022-11-29T03:54:36.043Z,97993.16
2022-11-29T03:57:04.554Z,97989.38
2022-11-29T03:59:56.211Z,97988.72
2022-11-29T04:03:06.476Z,97986.16
2022-11-29T04:06:03.341Z,97981.38
2022-11-29T04:09:00.962Z,97986.91
2022-11-29T04:12:05.072Z,97994.13
2022-11-29T04:14:41.598Z,97989.97
2022-11-29T04:17:58.707Z,97992.53
2022-11-29T04:20:51.959Z,97993.50
2022-11-29T04:23:48.166Z,97990.13
2022-11-29T04:26:48.277Z,97988.72
2022-11-29T04:29:37.415Z,97995.59
2022-11-29T04:32:27.499Z,98000.50
2022-11-29T04:35:11.320Z,97994.19
2022-11-29T04:38:12.342Z,98002.09
2022-11-29T04:40:57.290Z,98000.22
2022-11-29T04:43:52.799Z,98006.09
2022-11-29T04:46:37.704Z,98002.22
2022-11-29T04:49:41.143Z,98006.63
2022-11-29T04:52:35.893Z,98014.69
2022-11-29T04:55:22.729Z,98005.91
2022-11-29T04:58:01.165Z,98018.94
2022-11-29T05:00:36.281Z,98013.94
2022-11-29T05:03:12.685Z,98013.50
2022-11-29T05:05:48.703Z,98011.22
2022-11-29T05:08:29.417Z,98022.94
2022-11-29T05:11:06.755Z,98026.44
2022-11-29T05:13:43.991Z,98029.50
2022-11-29T05:16:27.392Z,98028.69
2022-11-29T05:19:30.577Z,98031.72
2022-11-29T05:22:10.211Z,98028.25
2022-11-29T05:24:53.721Z,98036.50
2022-11-29T05:27:34.443Z,98034.91
2022-11-29T05:30:07.152Z,98039.06
2022-11-29T05:32:39.459Z,98042.88
2022-11-29T05:35:33.962Z,98040.94
2022-11-29T05:38:11.452Z,98047.34
2022-11-29T05:40:47.174Z,98052.56
2022-11-29T05:43:31.156Z,98048.56
2022-11-29T05:46:07.013Z,98046.44
2022-11-29T05:48:45.323Z,98051.84
2022-11-29T05:51:22.398Z,98055.28
2022-11-29T05:54:01.641Z,98058.97
2022-11-29T05:56:41.681Z,98062.03
2022-11-29T05:59:13.555Z,98058.47
2022-11-29T06:01:49.555Z,98062.66
2022-11-29T06:04:24.452Z,98062.28
2022-11-29T06:07:03.735Z,98058.47
2022-11-29T06:09:38.038Z,98066.47
2022-11-29T06:12:16.998Z,98063.75
2022-11-29T06:15:13.737Z,98071.09
2022-11-29T06:18:03.275Z,98066.50
2022-11-29T06:20:55.476Z,98072.22
2022-11-29T06:23:54.400Z,98069.38
2022-11-29T06:27:02.310Z,98071.59
2022-11-29T06:29:39.282Z,98085.25
2022-11-29T06:32:19.750Z,98082.59
2022-11-29T06:34:55.064Z,98085.19
2022-11-29T06:37:27.866Z,98083.59
2022-11-29T06:39:57.466Z,98078.06
2022-11-29T06:42:25.230Z,98084.63
2022-11-29T06:44:53.428Z,98085.88
2022-11-29T06:47:29.058Z,98089.06
2022-11-29T06:50:04.063Z,98091.38
2022-11-29T06:52:43.437Z,98093.22
2022-11-29T06:55:19.026Z,98096.97
2022-11-29T06:58:04.123Z,98103.81
2022-11-29T07:00:41.894Z,98104.41
2022-11-29T07:03:34.480Z,98098.03
2022-11-29T07:06:10.040Z,98099.19
2022-11-29T07:08:38.959Z,98103.19
2022-11-29T07:11:10.486Z,98108.44
2022-11-29T07:13:38.869Z,98107.59
2022-11-29T07:16:17.840Z,98109.13
2022-11-29T07:18:53.220Z,98116.94
2022-11-29T07:21:27.315Z,98113.34
2022-11-29T07:24:03.744Z,98122.56
2022-11-29T07:26:40.438Z,98123.22
2022-11-29T07:29:24.082Z,98125.16
2022-11-29T07:32:04.446Z,98122.34
2022-11-29T07:34:41.338Z,98129.97
2022-11-29T07:37:17.695Z,98133.41
2022-11-29T07:39:56.016Z,98127.81
2022-11-29T07:42:32.721Z,98129.34
2022-11-29T07:45:08.793Z,98121.06
2022-11-29T07:47:36.519Z,98129.34
2022-11-29T07:50:04.398Z,98130.63
2022-11-29T07:52:32.119Z,98131.56
2022-11-29T07:54:59.866Z,98131.28
2022-11-29T07:57:29.061Z,98122.69
2022-11-29T07:59:56.743Z,98126.41
2022-11-29T08:02:28.862Z,98131.66
2022-11-29T08:04:56.792Z,98133.03
2022-11-29T08:07:25.086Z,98142.72
2022-11-29T08:09:52.912Z,98140.75
2022-11-29T08:12:20.801Z,98133.88
2022-11-29T08:14:49.835Z,98151.19
2022-11-29T08:17:18.668Z,98147.88
2022-11-29T08:19:46.464Z,98150.72
2022-11-29T08:22:14.253Z,98145.47
2022-11-29T08:24:41.978Z,98150.09
2022-11-29T08:27:09.742Z,98156.50
2022-11-29T08:29:37.481Z,98161.91
2022-11-29T08:32:07.134Z,98162.16
2022-11-29T08:34:34.952Z,98166.31
2022-11-29T08:37:02.637Z,98163.75
2022-11-29T08:39:30.474Z,98164.53
2022-11-29T08:41:58.596Z,98170.13
2022-11-29T08:44:26.312Z,98175.16
2022-11-29T08:47:11.734Z,98171.25
2022-11-29T08:50:01.109Z,98175.44
2022-11-29T08:52:46.086Z,98179.63
2022-11-29T08:55:13.886Z,98174.75
2022-11-29T08:57:41.706Z,98173.34
2022-11-29T09:00:10.595Z,98175.53
2022-11-29T09:02:38.680Z,98185.47
2022-11-29T09:05:09.444Z,98180.69
2022-11-29T09:07:37.458Z,98180.69
2022-11-29T09:10:08.110Z,98181.94
2022-11-29T09:12:36.608Z,98193.34
2022-11-29T09:15:04.978Z,98198.63
2022-11-29T09:17:32.933Z,98194.22
2022-11-29T09:20:00.761Z,98197.56
2022-11-29T09:22:29.838Z,98207.13
2022-11-29T09:24:57.590Z,98205.28
2022-11-29T09:27:25.234Z,98204.66
2022-11-29T09:29:52.921Z,98197.34
2022-11-29T09:32:20.536Z,98203.69
2022-11-29T09:34:48.539Z,98205.41
2022-11-29T09:37:16.337Z,98200.06
2022-11-29T09:39:45.662Z,98197.81
2022-11-29T09:42:28.008Z,98208.03
2022-11-29T09:45:04.587Z,98204.28
2022-11-29T09:47:56.258Z,98204.13
2022-11-29T09:50:32.400Z,98201.19
2022-11-29T09:53:18.637Z,98205.50
2022-11-29T09:56:01.052Z,98207.72
2022-11-29T09:58:33.933Z,98207.09
2022-11-29T10:01:06.399Z,98204.03
2022-11-29T10:03:39.312Z,98212.13
2022-11-29T10:06:14.347Z,98212.63
2022-11-29T10:08:49.291Z,98204.41
2022-11-29T10:11:23.173Z,98208.09
2022-11-29T10:13:54.836Z,98213.63
2022-11-29T10:16:29.469Z,98206.97
2022-11-29T10:19:06.060Z,98205.50
2022-11-29T10:21:37.521Z,98212.63
2022-11-29T10:24:10.835Z,98207.31
2022-11-29T10:26:39.921Z,98213.72
2022-11-29T10:29:07.690Z,98209.28
2022-11-29T10:31:40.125Z,98204.97
2022-11-29T10:34:14.395Z,98212.09
2022-11-29T10:36:45.517Z,98205.22
2022-11-29T10:39:17.591Z,98204.22
2022-11-29T10:41:46.943Z,98206.19
2022-11-29T10:44:15.987Z,98204.44
2022-11-29T10:46:43.986Z,98208.22
2022-11-29T10:49:15.463Z,98203.56
2022-11-29T10:51:43.616Z,98200.59
2022-11-29T10:54:22.625Z,98200.41
2022-11-29T10:56:53.115Z,98201.63
2022-11-29T10:59:23.352Z,98200.94
2022-11-29T11:01:51.877Z,98211.94
2022-11-29T11:04:28.773Z,98209.88
2022-11-29T11:07:00.961Z,98203.97
2022-11-29T11:09:34.206Z,98218.06
2022-11-29T11:12:06.869Z,98213.09
2022-11-29T11:14:37.512Z,98214.31
2022-11-29T11:17:21.834Z,98210.88
2022-11-29T11:19:57.992Z,98213.09
2022-11-29T11:22:27.113Z,98209.94
2022-11-29T11:25:01.032Z,98207.88
2022-11-29T11:27:32.443Z,98214.75
2022-11-29T11:30:01.411Z,98208.06
2022-11-29T11:32:29.290Z,98215.38
2022-11-29T11:34:59.125Z,98213.66
2022-11-29T11:37:28.587Z,98217.25
2022-11-29T11:39:58.410Z,98217.41
2022-11-29T11:42:38.269Z,98217.09
2022-11-29T11:45:24.200Z,98219.81
2022-11-29T11:47:53.923Z,98212.53
2022-11-29T11:50:29.931Z,98209.66
2022-11-29T11:52:59.379Z,98214.94
2022-11-29T11:55:33.237Z,98217.47
2022-11-29T11:58:09.716Z,98216.69
2022-11-29T12:03:36.895Z,98222.31
2022-11-29T12:06:18.706Z,98223.84
2022-11-29T12:08:48.497Z,98218.00
2022-11-29T12:11:19.380Z,98220.84
2022-11-29T12:13:51.840Z,98223.06
2022-11-29T12:16:28.525Z,98225.47
2022-11-29T12:19:00.401Z,98223.69
2022-11-29T12:21:34.470Z,98223.25
2022-11-29T12:24:09.278Z,98221.22
2022-11-29T12:26:57.672Z,98227.28
2022-11-29T12:29:30.280Z,98225.03
2022-11-29T12:32:18.985Z,98228.84
2022-11-29T12:35:02.959Z,98229.78
2022-11-29T12:37:36.698Z,98223.69
2022-11-29T12:40:12.158Z,98224.38
2022-11-29T12:42:49.383Z,98232.69
2022-11-29T12:45:30.203Z,98239.72
2022-11-29T12:48:10.704Z,98240.22
2022-11-29T12:50:47.427Z,98227.59
2022-11-29T12:53:28.550Z,98238.84
2022-11-29T12:56:08.356Z,98236.75
2022-11-29T12:58:46.655Z,98244.41
2022-11-29T13:01:26.122Z,98235.19
2022-11-29T13:04:00.244Z,98249.06
2022-11-29T13:06:35.566Z,98251.91
2022-11-29T13:09:47.623Z,98246.63
2022-11-29T13:12:22.053Z,98253.50
2022-11-29T13:14:56.729Z,98253.63
2022-11-29T13:17:32.531Z,98257.63
2022-11-29T13:20:11.522Z,98254.75
2022-11-29T13:22:47.537Z,98251.06
2022-11-29T13:25:19.511Z,98258.28
2022-11-29T13:27:54.843Z,98255.72
2022-11-29T13:30:23.021Z,98254.91
2022-11-29T13:32:58.487Z,98255.41
2022-11-29T13:35:37.268Z,98266.75
2022-11-29T13:38:14.513Z,98263.09
2022-11-29T13:40:55.370Z,98259.88
2022-11-29T13:43:30.784Z,98262.28
2022-11-29T13:46:08.319Z,98256.53
2022-11-29T13:48:47.807Z,98266.44
2022-11-29T13:51:26.809Z,98262.13
2022-11-29T13:53:56.072Z,98267.38
2022-11-29T13:56:36.629Z,98267.19
2022-11-29T13:59:08.787Z,98268.78
2022-11-29T14:01:48.318Z,98264.97
2022-11-29T14:04:25.907Z,98267.19
2022-11-29T14:07:14.287Z,98273.22
2022-11-29T14:09:51.167Z,98271.63
2022-11-29T14:12:35.789Z,98280.59
2022-11-29T14:15:17.363Z,98277.41
2022-11-29T14:17:56.602Z,98278.53
2022-11-29T14:20:58.174Z,98277.22
2022-11-29T14:23:36.317Z,98278.47
2022-11-29T14:26:28.731Z,98278.03
2022-11-29T14:28:57.927Z,98282.66
2022-11-29T14:31:52.382Z,98282.19
2022-11-29T14:34:46.073Z,98280.88
2022-11-29T14:37:29.789Z,98278.03
2022-11-29T14:40:02.369Z,98286.66
2022-11-29T14:42:30.696Z,98289.84
2022-11-29T14:45:01.547Z,98287.63
2022-11-29T14:47:35.038Z,98293.19
2022-11-29T14:50:07.420Z,98290.75
2022-11-29T14:52:38.910Z,98292.78
2022-11-29T14:55:28.910Z,98300.16
2022-11-29T14:58:07.677Z,98298.09
2022-11-29T15:00:55.268Z,98294.75
2022-11-29T15:03:31.729Z,98307.50
2022-11-29T15:06:02.095Z,98312.28
2022-11-29T15:08:35.584Z,98306.19
2022-11-29T15:11:14.532Z,98302.41
2022-11-29T15:13:56.039Z,98319.06
2022-11-29T15:16:36.445Z,98310.19
2022-11-29T15:19:36.589Z,98314.63
2022-11-29T15:22:09.754Z,98318.81
2022-11-29T15:24:51.854Z,98319.44
2022-11-29T15:27:21.526Z,98323.88
2022-11-29T15:29:50.463Z,98325.97
2022-11-29T15:32:23.960Z,98327.25
2022-11-29T15:34:53.832Z,98329.91
2022-11-29T15:37:27.113Z,98329.97
2022-11-29T15:40:05.799Z,98325.13
2022-11-29T15:42:42.548Z,98333.47
2022-11-29T15:45:32.888Z,98339.34
2022-11-29T15:48:16.728Z,98341.56
2022-11-29T15:50:51.029Z,98337.91
2022-11-29T15:53:23.444Z,98344.94
2022-11-29T15:55:55.130Z,98344.94
2022-11-29T15:58:26.317Z,98352.44
2022-11-29T16:00:55.311Z,98355.09
2022-11-29T16:03:26.224Z,98357.38
2022-11-29T16:06:02.585Z,98346.41
2022-11-29T16:08:34.124Z,98345.91
2022-11-29T16:11:02.188Z,98355.03
2022-11-29T16:13:35.631Z,98357.19
2022-11-29T16:16:07.748Z,98359.72
2022-11-29T16:18:36.056Z,98364.66
2022-11-29T16:21:06.411Z,98359.72
2022-11-29T16:23:35.291Z,98364.97
2022-11-29T16:26:14.232Z,98372.28
2022-11-29T16:28:45.434Z,98374.25
2022-11-29T16:31:18.100Z,98376.47
2022-11-29T16:33:47.436Z,98375.50
2022-11-29T16:36:18.285Z,98380.28
2022-11-29T16:38:47.868Z,98382.88
2022-11-29T16:41:24.771Z,98382.50
2022-11-29T16:43:57.441Z,98386.81
2022-11-29T16:46:34.343Z,98385.22
2022-11-29T16:49:04.269Z,98387.31
2022-11-29T16:51:39.740Z,98386.94
2022-11-29T16:54:23.652Z,98384.38
2022-11-29T16:56:52.822Z,98384.72
2022-11-29T16:59:27.370Z,98390.78
2022-11-29T17:01:56.467Z,98399.38
2022-11-29T17:04:25.002Z,98395.22
2022-11-29T17:06:53.422Z,98386.84
2022-11-29T17:09:24.986Z,98388.81
2022-11-29T17:11:53.320Z,98396.44
2022-11-29T17:14:22.800Z,98393.75
2022-11-29T17:16:51.854Z,98388.94
2022-11-29T17:19:23.992Z,98393.50
2022-11-29T17:21:52.701Z,98391.31
2022-11-29T17:24:23.168Z,98399.28
2022-11-29T17:26:51.626Z,98386.00
2022-11-29T17:29:20.098Z,98390.69
2022-11-29T17:31:50.523Z,98396.56
2022-11-29T17:34:18.805Z,98397.69
2022-11-29T17:36:46.694Z,98397.81
2022-11-29T17:39:15.570Z,98404.69
2022-11-29T17:41:43.548Z,98405.94
2022-11-29T17:44:11.412Z,98409.75
2022-11-29T17:46:39.408Z,98398.31
2022-11-29T17:49:10.303Z,98396.94
2022-11-29T17:51:55.462Z,98401.75
2022-11-29T17:54:23.760Z,98406.63
2022-11-29T17:56:51.863Z,98401.41
2022-11-29T17:59:20.446Z,98412.84
2022-11-29T18:01:48.477Z,98415.66
2022-11-29T18:04:19.259Z,98424.59
2022-11-29T18:06:50.226Z,98430.69
2022-11-29T18:09:19.485Z,98427.34
2022-11-29T18:11:49.925Z,98436.25
2022-11-29T18:14:20.757Z,98435.47
2022-11-29T18:16:48.937Z,98432.31
2022-11-29T18:19:19.939Z,98430.69
2022-11-29T18:21:47.707Z,98431.91
2022-11-29T18:24:15.672Z,98427.69
2022-11-29T18:26:43.573Z,98428.47
2022-11-29T18:29:11.407Z,98432.31
2022-11-29T18:31:41.658Z,98443.53
2022-11-29T18:34:11.058Z,98438.31
2022-11-29T18:36:43.395Z,98443.34
2022-11-29T18:39:14.961Z,98437.94
2022-11-29T18:41:43.753Z,98446.16
2022-11-29T18:44:13.757Z,98439.19
2022-11-29T18:46:47.455Z,98435.72
2022-11-29T18:49:16.861Z,98432.63
2022-11-29T18:51:46.996Z,98436.72
2022-11-29T18:54:15.838Z,98443.13
2022-11-29T18:56:44.372Z,98437.47
2022-11-29T18:59:16.462Z,98441.66
2022-11-29T19:01:46.181Z,98435.75
2022-11-29T19:04:15.888Z,98439.31
2022-11-29T19:06:45.078Z,98442.50
2022-11-29T19:09:14.754Z,98449.00
2022-11-29T19:11:42.891Z,98452.97
2022-11-29T19:14:12.879Z,98448.28
2022-11-29T19:16:42.437Z,98450.81
2022-11-29T19:19:10.216Z,98455.44
2022-11-29T19:21:39.610Z,98460.19
2022-11-29T19:24:14.832Z,98457.50
2022-11-29T19:26:44.793Z,98459.22
2022-11-29T19:29:13.141Z,98466.63
2022-11-29T19:31:41.244Z,98474.63
2022-11-29T19:34:09.177Z,98463.72
2022-11-29T19:36:42.597Z,98463.41
2022-11-29T19:39:13.948Z,98457.00
2022-11-29T19:41:43.298Z,98457.00
2022-11-29T19:44:11.653Z,98460.84
2022-11-29T19:46:41.636Z,98464.25
2022-11-29T19:49:10.201Z,98458.44
2022-11-29T19:51:38.570Z,98457.81
2022-11-29T19:54:08.227Z,98460.19
2022-11-29T19:56:38.075Z,98461.94
2022-11-29T19:59:07.412Z,98454.97
2022-11-29T20:01:40.711Z,98457.50
2022-11-29T20:04:09.509Z,98464.25
2022-11-29T20:06:37.563Z,98460.44
2022-11-29T20:09:06.365Z,98462.03
2022-11-29T20:11:34.126Z,98456.03
2022-11-29T20:14:05.308Z,98466.97
2022-11-29T20:16:33.801Z,98470.06
2022-11-29T20:19:01.765Z,98463.84
2022-11-29T20:21:31.192Z,98467.34
2022-11-29T20:24:00.498Z,98462.41
2022-11-29T20:26:29.275Z,98458.59
2022-11-29T20:28:57.051Z,98465.84
2022-11-29T20:31:26.574Z,98461.63
2022-11-29T20:33:57.304Z,98470.06
2022-11-29T20:36:40.598Z,98470.28
2022-11-29T20:39:17.581Z,98466.09
2022-11-29T20:41:53.875Z,98481.84
2022-11-29T20:44:26.678Z,98482.94
2022-11-29T20:46:56.237Z,98485.50
2022-11-29T20:49:24.486Z,98484.09
2022-11-29T20:51:56.800Z,98493.53
2022-11-29T20:54:24.539Z,98490.31
2022-11-29T20:56:52.262Z,98481.91
2022-11-29T20:59:19.970Z,98482.94
2022-11-29T21:01:47.760Z,98484.31
2022-11-29T21:04:22.903Z,98490.22
2022-11-29T21:06:51.272Z,98491.44
2022-11-29T21:09:18.956Z,98496.97
2022-11-29T21:11:47.083Z,98505.56
2022-11-29T21:14:15.489Z,98506.69
2022-11-29T21:16:43.647Z,98506.00
2022-11-29T21:19:17.087Z,98514.59
2022-11-29T21:21:58.704Z,98510.09
2022-11-29T21:24:40.704Z,98510.97
2022-11-29T21:27:14.737Z,98510.69
2022-11-29T21:29:43.093Z,98516.31
2022-11-29T21:32:21.739Z,98513.41
2022-11-29T21:34:50.175Z,98516.41
2022-11-29T21:37:21.547Z,98517.81
2022-11-29T21:39:51.483Z,98526.91
2022-11-29T21:42:19.486Z,98527.84
2022-11-29T21:44:47.558Z,98524.91
2022-11-29T21:47:15.901Z,98526.25
2022-11-29T21:49:43.687Z,98534.22
2022-11-29T21:52:19.020Z,98527.72
2022-11-29T21:54:51.704Z,98518.41
2022-11-29T21:57:19.468Z,98521.19
2022-11-29T21:59:47.275Z,98510.78
2022-11-29T22:02:15.193Z,98513.59
2022-11-29T22:04:43.788Z,98511.38
2022-11-29T22:07:11.718Z,98520.00
2022-11-29T22:09:39.708Z,98523.22
2022-11-29T22:12:32.539Z,98522.59
2022-11-29T22:14:57.516Z,98518.16
2022-11-29T22:17:25.387Z,98517.19
2022-11-29T22:19:53.053Z,98515.69
2022-11-29T22:22:20.871Z,98517.78
2022-11-29T22:24:48.855Z,98528.13
2022-11-29T22:27:18.585Z,98526.41
2022-11-29T22:29:46.423Z,98521.50
2022-11-29T22:32:14.187Z,98527.38
2022-11-29T22:34:42.202Z,98530.63
2022-11-29T22:37:12.427Z,98529.81
2022-11-29T22:39:40.168Z,98524.31
2022-11-29T22:42:08.092Z,98532.63
2022-11-29T22:44:37.322Z,98533.03
2022-11-29T22:47:05.124Z,98535.44
2022-11-29T22:49:33.318Z,98520.41
2022-11-29T22:52:01.180Z,98531.81
2022-11-29T22:54:28.962Z,98536.53
2022-11-29T22:56:56.754Z,98543.16
2022-11-29T22:59:24.545Z,98540.66
2022-11-29T23:01:53.740Z,98542.47
2022-11-29T23:04:21.561Z,98538.44
2022-11-29T23:06:49.458Z,98538.03
2022-11-29T23:09:21.663Z,98529.81
2022-11-29T23:11:52.108Z,98537.44
2022-11-29T23:14:20.456Z,98539.03
2022-11-29T23:16:48.407Z,98531.81
2022-11-29T23:19:18.338Z,98534.63
2022-11-29T23:21:46.532Z,98541.44
2022-11-29T23:24:15.131Z,98534.22
2022-11-29T23:26:45.384Z,98539.84
2022-11-29T23:29:15.314Z,98536.84
2022-11-29T23:31:43.641Z,98536.84
2022-11-29T23:34:11.533Z,98530.03
2022-11-29T23:36:40.933Z,98528.91
2022-11-29T23:39:08.986Z,98523.72
2022-11-29T23:41:37.927Z,98525.81
2022-11-29T23:44:06.567Z,98520.22
2022-11-29T23:46:37.237Z,98516.09
2022-11-29T23:49:05.066Z,98518.63
2022-11-29T23:51:32.793Z,98522.03
2022-11-29T23:54:01.899Z,98520.41
2022-11-29T23:56:35.036Z,98520.03
2022-11-29T23:59:02.691Z,98508.22
